Time;durP1;ratioP1;P1;durP2;ratioP2;P2;SDS_P1;SDS_P2;PMS_P1;PMS_P2;Temp;Humidity;BMP_temperature;BMP_pressure;BME280_temperature;BME280_humidity;BME280_pressure;Samples;Min_cycle;Max_cycle;Signal;HPM_P1;HPM_P2
2021/04/13 00:01:12;;;;;;;7.55;3.83;;;3.00;99.90;;;;;;5052825;28;20119;-80
2021/04/13 00:04:06;;;;;;;9.15;3.83;;;2.90;99.90;;;;;;5071277;28;20040;-81
2021/04/13 00:06:37;;;;;;;7.95;4.18;;;3.50;99.90;;;;;;5052166;28;20123;-81
2021/04/13 00:09:20;;;;;;;8.57;4.28;;;2.90;99.90;;;;;;5071821;28;20060;-81
2021/04/13 00:11:49;;;;;;;10.38;4.63;;;2.90;99.90;;;;;;5072898;28;20048;-81
2021/04/13 00:14:18;;;;;;;9.25;4.10;;;2.90;99.90;;;;;;5089844;28;20028;-81
2021/04/13 00:16:46;;;;;;;8.52;4.80;;;2.90;99.90;;;;;;5090547;28;20056;-79
2021/04/13 00:19:11;;;;;;;7.80;4.35;;;2.80;99.90;;;;;;5078718;28;20024;-78
2021/04/13 00:21:41;;;;;;;8.50;4.25;;;2.80;99.90;;;;;;5070391;28;20073;-78
2021/04/13 00:24:13;;;;;;;8.38;4.75;;;2.80;99.90;;;;;;5081801;28;20087;-81
2021/04/13 00:26:38;;;;;;;9.65;5.43;;;2.80;99.90;;;;;;5086334;28;20028;-82
2021/04/13 00:29:12;;;;;;;9.23;5.05;;;2.70;99.90;;;;;;5073416;28;20390;-80
2021/04/13 00:31:41;;;;;;;12.05;5.60;;;2.70;99.90;;;;;;5086584;28;20596;-79
2021/04/13 00:34:12;;;;;;;10.43;5.47;;;2.60;99.90;;;;;;5087693;28;20036;-81
2021/04/13 00:36:39;;;;;;;10.93;5.55;;;2.60;99.90;;;;;;5083539;28;20032;-79
2021/04/13 00:39:25;;;;;;;11.00;5.07;;;2.60;99.90;;;;;;5072823;28;20024;-79
2021/04/13 00:41:55;;;;;;;9.10;5.07;;;2.40;99.90;;;;;;5085238;28;20044;-81
2021/04/13 00:44:22;;;;;;;10.98;5.90;;;2.30;99.90;;;;;;5062920;28;20114;-81
2021/04/13 00:47:02;;;;;;;10.13;5.20;;;2.40;99.90;;;;;;5085013;28;20033;-81
2021/04/13 00:49:31;;;;;;;8.68;5.18;;;2.40;99.90;;;;;;5071198;28;20020;-81
2021/04/13 00:52:10;;;;;;;10.32;5.53;;;2.30;99.90;;;;;;5070135;28;20064;-82
2021/04/13 00:54:43;;;;;;;9.18;5.22;;;2.10;99.90;;;;;;5069507;28;20032;-81
2021/04/13 00:57:19;;;;;;;9.77;5.30;;;2.20;99.90;;;;;;5070258;28;20154;-79
2021/04/13 00:59:47;;;;;;;11.80;6.22;;;2.20;99.90;;;;;;5078768;28;20110;-81
2021/04/13 01:02:18;;;;;;;10.50;5.35;;;2.20;99.90;;;;;;5086891;28;20490;-81
2021/04/13 01:05:05;;;;;;;9.55;5.18;;;2.20;99.90;;;;;;5076725;28;20036;-79
2021/04/13 01:07:48;;;;;;;10.00;5.35;;;2.20;99.90;;;;;;5090594;28;20032;-81
2021/04/13 01:10:23;;;;;;;9.63;5.15;;;2.20;99.90;;;;;;5080900;28;20036;-81
2021/04/13 01:13:08;;;;;;;8.23;4.70;;;2.20;99.90;;;;;;5070836;28;20028;-81
2021/04/13 01:15:35;;;;;;;8.90;5.32;;;2.10;99.90;;;;;;5081796;28;20028;-81
2021/04/13 01:18:07;;;;;;;8.95;4.32;;;2.10;99.90;;;;;;5093243;28;20021;-81
2021/04/13 01:20:43;;;;;;;9.52;5.25;;;2.20;99.90;;;;;;5094077;28;20568;-79
2021/04/13 01:23:30;;;;;;;9.30;5.32;;;2.20;99.90;;;;;;5094152;28;20039;-81
2021/04/13 01:26:02;;;;;;;10.13;5.00;;;2.20;99.90;;;;;;5084920;28;20133;-81
2021/04/13 01:28:35;;;;;;;9.98;5.78;;;2.10;99.90;;;;;;5094356;28;20046;-81
2021/04/13 01:34:10;;;;;;;9.57;5.35;;;2.00;99.90;;;;;;5094299;28;20565;-81
2021/04/13 01:36:40;;;;;;;11.68;4.68;;;2.10;99.90;;;;;;5093730;28;20035;-81
2021/04/13 01:39:24;;;;;;;10.25;5.53;;;2.10;99.90;;;;;;5073150;28;20074;-81
2021/04/13 01:44:21;;;;;;;12.95;5.28;;;2.10;99.90;;;;;;5073161;28;20408;-82
2021/04/13 01:46:46;;;;;;;11.00;5.75;;;1.90;99.90;;;;;;5084758;28;20102;-79
2021/04/13 01:49:12;;;;;;;11.77;5.32;;;1.80;99.90;;;;;;5093336;28;20047;-79
2021/04/13 01:51:38;;;;;;;15.75;6.13;;;1.90;99.90;;;;;;5056269;28;20137;-79
2021/04/13 01:54:11;;;;;;;13.27;6.60;;;1.80;99.90;;;;;;5055137;28;20389;-79
2021/04/13 01:56:43;;;;;;;;;;;1.80;99.90;;;;;;5060373;28;20153;-81
2021/04/13 01:59:37;;;;;;;13.15;5.82;;;1.90;99.90;;;;;;5073593;28;19924;-79
2021/04/13 02:02:26;;;;;;;12.35;6.07;;;1.90;99.90;;;;;;5075009;28;20039;-81
2021/04/13 02:04:56;;;;;;;9.45;5.25;;;1.80;99.90;;;;;;5093327;28;20032;-81
2021/04/13 02:07:45;;;;;;;11.55;5.43;;;1.80;99.90;;;;;;5093333;28;20043;-81
2021/04/13 02:10:40;;;;;;;12.18;5.47;;;1.80;99.90;;;;;;5093613;28;20508;-81
2021/04/13 02:13:17;;;;;;;9.52;4.97;;;1.80;99.90;;;;;;5066458;28;20048;-82
2021/04/13 02:16:04;;;;;;;13.77;7.20;;;1.90;99.90;;;;;;5073285;28;20675;-79
2021/04/13 02:18:42;;;;;;;13.05;6.28;;;1.90;99.90;;;;;;5076801;28;20086;-82
2021/04/13 02:21:36;;;;;;;12.00;5.97;;;1.80;99.90;;;;;;5073109;28;20024;-82
2021/04/13 02:24:12;;;;;;;10.45;5.55;;;1.80;99.90;;;;;;5073351;28;20033;-79
2021/04/13 02:26:53;;;;;;;8.80;5.18;;;1.70;99.90;;;;;;5073194;28;20469;-82
2021/04/13 02:29:26;;;;;;;9.27;5.43;;;1.70;99.90;;;;;;5072494;28;20131;-82
2021/04/13 02:31:58;;;;;;;9.18;5.18;;;1.80;99.90;;;;;;5093217;28;20034;-79
2021/04/13 02:34:29;;;;;;;11.77;6.50;;;1.70;99.90;;;;;;5092788;28;20042;-79
2021/04/13 02:37:00;;;;;;;10.73;6.07;;;1.70;99.90;;;;;;5071804;28;20656;-82
2021/04/13 02:39:30;;;;;;;10.02;5.80;;;1.70;99.90;;;;;;5090471;28;20025;-79
2021/04/13 02:42:01;;;;;;;11.65;5.90;;;1.60;99.90;;;;;;5086471;28;20032;-82
2021/04/13 02:44:27;;;;;;;9.82;5.90;;;1.50;99.90;;;;;;5073808;28;20066;-82
2021/04/13 02:46:59;;;;;;;12.05;6.90;;;1.60;99.90;;;;;;5075627;28;20032;-79
2021/04/13 02:49:27;;;;;;;13.95;8.02;;;1.60;99.90;;;;;;5069343;28;20032;-79
2021/04/13 02:51:55;;;;;;;12.77;7.63;;;1.60;99.90;;;;;;5092619;28;20071;-79
2021/04/13 02:54:25;;;;;;;11.55;7.03;;;1.60;99.90;;;;;;5092487;28;20756;-79
2021/04/13 02:56:53;;;;;;;11.07;6.40;;;1.60;99.90;;;;;;5074466;28;20084;-79
2021/04/13 02:59:23;;;;;;;11.15;6.35;;;1.60;99.90;;;;;;5073915;28;20020;-79
2021/04/13 03:02:07;;;;;;;10.48;6.07;;;1.60;99.90;;;;;;5074188;28;20024;-82
2021/04/13 03:04:46;;;;;;;11.10;6.57;;;1.60;99.90;;;;;;5080894;28;20051;-82
2021/04/13 03:07:22;;;;;;;14.75;8.18;;;1.30;99.90;;;;;;5072241;28;20059;-79
2021/04/13 03:09:50;;;;;;;15.60;8.48;;;1.30;99.90;;;;;;5064228;28;20445;-81
2021/04/13 03:12:18;;;;;;;14.57;7.60;;;1.30;99.90;;;;;;5092567;28;20516;-81
2021/04/13 03:14:49;;;;;;;14.18;8.07;;;1.30;99.90;;;;;;5086242;28;20025;-81
2021/04/13 03:17:26;;;;;;;13.18;7.63;;;1.30;99.90;;;;;;5072770;28;20439;-79
2021/04/13 03:19:59;;;;;;;17.83;7.70;;;1.40;99.90;;;;;;5082528;28;20672;-82
2021/04/13 03:22:26;;;;;;;15.90;8.10;;;1.40;99.90;;;;;;5074274;28;20032;-82
2021/04/13 03:24:53;;;;;;;12.23;7.07;;;1.40;99.90;;;;;;5090899;28;20028;-82
2021/04/13 03:27:22;;;;;;;13.18;7.40;;;1.40;99.90;;;;;;5092079;28;20028;-79
2021/04/13 03:29:56;;;;;;;11.18;6.68;;;1.40;99.90;;;;;;5073625;28;20113;-82
2021/04/13 03:32:26;;;;;;;15.40;7.07;;;1.40;99.90;;;;;;5073357;28;20044;-79
2021/04/13 03:34:52;;;;;;;17.38;11.20;;;1.40;99.90;;;;;;5091922;28;20036;-79
2021/04/13 03:37:18;;;;;;;15.05;9.38;;;1.40;99.90;;;;;;5091198;28;20032;-79
2021/04/13 03:39:45;;;;;;;16.38;9.40;;;1.40;99.90;;;;;;5072057;28;20066;-79
2021/04/13 03:42:21;;;;;;;23.88;9.30;;;1.40;99.90;;;;;;5054731;28;20074;-82
2021/04/13 03:44:49;;;;;;;16.95;7.88;;;1.40;99.90;;;;;;5073845;28;20471;-82
2021/04/13 03:47:19;;;;;;;15.00;7.10;;;1.40;99.90;;;;;;5091860;28;20424;-83
2021/04/13 03:49:46;;;;;;;13.10;6.20;;;1.40;99.90;;;;;;5074678;28;20756;-82
2021/04/13 03:52:23;;;;;;;12.63;6.50;;;1.40;99.90;;;;;;5074599;28;20074;-82
2021/04/13 03:54:49;;;;;;;11.80;5.80;;;1.30;99.90;;;;;;5093792;28;20059;-79
2021/04/13 03:57:31;;;;;;;17.13;6.70;;;1.30;99.90;;;;;;5092870;28;20032;-79
2021/04/13 03:59:58;;;;;;;;;;;1.20;99.90;;;;;;5078079;28;20104;-81
2021/04/13 04:02:24;;;;;;;12.73;6.78;;;1.30;99.90;;;;;;5083264;28;19912;-81
2021/04/13 04:05:08;;;;;;;13.00;6.75;;;1.20;99.90;;;;;;5092474;28;20086;-79
2021/04/13 04:07:38;;;;;;;13.93;7.82;;;1.30;99.90;;;;;;5091764;28;20067;-80
2021/04/13 04:10:27;;;;;;;15.85;7.20;;;1.20;99.90;;;;;;5074048;28;20023;-79
2021/04/13 04:13:13;;;;;;;12.77;7.88;;;1.20;99.90;;;;;;5091414;28;20787;-82
2021/04/13 04:16:04;;;;;;;14.68;7.10;;;1.10;99.90;;;;;;5092335;28;20043;-81
2021/04/13 04:18:44;;;;;;;15.18;7.38;;;1.10;99.90;;;;;;5064843;28;20024;-82
2021/04/13 04:21:31;;;;;;;18.40;8.50;;;1.10;99.90;;;;;;5072222;28;20082;-80
2021/04/13 04:24:17;;;;;;;16.55;8.82;;;1.20;99.90;;;;;;5078305;28;20017;-81
2021/04/13 04:26:55;;;;;;;14.45;7.65;;;1.20;99.90;;;;;;5072165;28;20059;-82
2021/04/13 04:29:28;;;;;;;18.10;8.52;;;1.20;99.90;;;;;;5082518;28;20108;-82
2021/04/13 04:31:54;;;;;;;16.52;7.65;;;1.10;99.90;;;;;;5076766;28;20501;-81
2021/04/13 04:34:19;;;;;;;19.75;7.78;;;1.10;99.90;;;;;;5083226;28;20036;-79
2021/04/13 04:36:50;;;;;;;15.25;8.00;;;1.10;99.90;;;;;;5090931;28;20040;-79
2021/04/13 04:39:30;;;;;;;13.20;7.80;;;1.10;99.90;;;;;;5073249;28;20028;-79
2021/04/13 04:42:05;;;;;;;15.23;8.02;;;1.10;99.90;;;;;;5053705;28;20074;-81
2021/04/13 04:44:31;;;;;;;14.45;7.97;;;1.00;99.90;;;;;;5072177;28;20016;-81
2021/04/13 04:47:01;;;;;;;18.55;8.55;;;1.00;99.90;;;;;;5083066;28;20517;-82
2021/04/13 04:49:37;;;;;;;15.13;7.40;;;1.00;99.90;;;;;;5074348;28;20528;-82
2021/04/13 04:52:03;;;;;;;13.70;7.68;;;1.00;99.90;;;;;;5085654;28;20222;-79
2021/04/13 04:54:28;;;;;;;12.52;7.30;;;1.00;99.90;;;;;;5076067;28;20125;-79
2021/04/13 04:56:54;;;;;;;13.93;8.05;;;1.00;99.90;;;;;;5084356;28;20036;-79
2021/04/13 04:59:20;;;;;;;19.50;9.05;;;1.00;99.90;;;;;;5078401;28;20385;-79
2021/04/13 05:01:46;;;;;;;23.55;8.27;;;1.00;99.90;;;;;;5092738;28;20073;-79
2021/04/13 05:04:12;;;;;;;20.02;8.25;;;1.00;99.90;;;;;;5094902;28;20132;-79
2021/04/13 05:06:37;;;;;;;15.38;8.73;;;1.00;99.90;;;;;;5086904;28;20032;-79
2021/04/13 05:09:03;;;;;;;13.82;8.77;;;0.90;99.90;;;;;;5082801;28;20631;-79
2021/04/13 05:11:29;;;;;;;20.05;8.57;;;1.00;99.90;;;;;;5095535;28;20426;-79
2021/04/13 05:13:54;;;;;;;16.50;9.02;;;0.90;99.90;;;;;;5096107;28;20103;-79
2021/04/13 05:16:21;;;;;;;18.30;9.95;;;1.00;99.90;;;;;;5077586;28;20465;-79
2021/04/13 05:18:47;;;;;;;19.80;9.45;;;1.00;99.90;;;;;;5077183;28;20036;-79
2021/04/13 05:21:13;;;;;;;22.45;9.75;;;1.00;99.90;;;;;;5077588;28;20028;-79
2021/04/13 05:23:39;;;;;;;20.30;10.25;;;1.00;99.90;;;;;;5092973;28;20035;-79
2021/04/13 05:26:05;;;;;;;16.80;9.13;;;1.10;99.90;;;;;;5079400;28;20031;-79
2021/04/13 05:28:31;;;;;;;15.93;9.38;;;1.00;99.90;;;;;;5077212;28;20136;-79
2021/04/13 05:30:57;;;;;;;19.10;9.32;;;1.00;99.90;;;;;;5096188;28;20059;-79
2021/04/13 05:33:25;;;;;;;16.95;8.88;;;1.00;99.90;;;;;;5095476;28;20369;-80
2021/04/13 05:35:51;;;;;;;19.98;9.70;;;1.00;99.90;;;;;;5092182;28;20020;-80
2021/04/13 05:38:21;;;;;;;24.33;12.52;;;1.10;99.90;;;;;;5089208;28;20107;-82
2021/04/13 05:40:47;;;;;;;21.38;10.95;;;1.10;99.90;;;;;;5094069;28;20033;-82
2021/04/13 05:43:16;;;;;;;22.42;9.88;;;1.10;99.90;;;;;;5075208;28;20052;-82
2021/04/13 05:45:44;;;;;;;24.88;12.07;;;1.10;99.90;;;;;;5095020;28;20024;-82
2021/04/13 05:48:11;;;;;;;19.88;11.07;;;1.10;99.90;;;;;;5098291;28;20472;-80
2021/04/13 05:50:39;;;;;;;19.88;10.73;;;1.10;99.90;;;;;;5100869;28;20024;-80
2021/04/13 05:53:06;;;;;;;25.05;10.00;;;1.10;99.90;;;;;;5069446;28;20036;-80
2021/04/13 05:55:32;;;;;;;18.50;10.85;;;1.10;99.90;;;;;;5087968;28;20030;-80
2021/04/13 05:58:02;;;;;;;18.65;10.50;;;1.10;99.90;;;;;;5077528;28;20540;-80
2021/04/13 06:00:29;;;;;;;17.17;9.27;;;1.40;99.90;;;;;;5073042;28;20085;-80
2021/04/13 06:02:55;;;;;;;19.40;9.60;;;1.70;99.90;;;;;;5074330;28;20118;-80
2021/04/13 06:05:23;;;;;;;30.35;9.48;;;2.00;99.90;;;;;;5072632;28;20035;-80
2021/04/13 06:07:49;;;;;;;21.38;9.02;;;2.50;99.90;;;;;;5090999;28;20111;-80
2021/04/13 06:10:16;;;;;;;23.83;9.02;;;2.60;99.90;;;;;;5093863;28;20132;-80
2021/04/13 06:12:42;;;;;;;18.60;9.50;;;2.90;99.90;;;;;;5072893;28;20032;-83
2021/04/13 06:15:12;;;;;;;16.40;8.15;;;3.10;99.90;;;;;;5060406;28;20032;-83
2021/04/13 06:17:38;;;;;;;19.90;8.32;;;3.40;99.90;;;;;;5092468;28;20048;-82
2021/04/13 06:20:04;;;;;;;16.35;7.80;;;3.70;99.90;;;;;;5093843;28;20453;-82
2021/04/13 06:22:30;;;;;;;14.93;7.05;;;3.80;99.90;;;;;;5063562;28;20071;-83
2021/04/13 06:24:55;;;;;;;12.15;6.53;;;3.90;99.90;;;;;;5079693;28;20028;-82
2021/04/13 06:27:21;;;;;;;15.93;7.05;;;4.20;99.90;;;;;;5083472;28;20040;-83
2021/04/13 06:29:46;;;;;;;16.02;8.02;;;4.30;99.90;;;;;;5092828;28;20102;-83
2021/04/13 06:32:12;;;;;;;15.63;6.93;;;4.40;99.90;;;;;;5083285;28;20028;-81
2021/04/13 06:34:38;;;;;;;18.95;7.30;;;4.70;99.90;;;;;;5066660;28;20035;-83
2021/04/13 06:37:06;;;;;;;15.40;8.10;;;5.00;99.90;;;;;;5082020;28;21928;-83
2021/04/13 06:39:34;;;;;;;13.77;5.93;;;5.10;99.90;;;;;;5066430;28;20437;-83
2021/04/13 06:42:33;;;;;;;12.50;7.05;;;5.20;99.90;;;;;;5074414;28;20032;-82
2021/04/13 06:45:40;;;;;;;10.85;6.45;;;5.10;99.90;;;;;;5040564;28;20090;-83
2021/04/13 06:48:18;;;;;;;13.35;6.30;;;5.20;99.90;;;;;;4999215;28;20584;-83
2021/04/13 06:51:20;;;;;;;15.02;6.90;;;4.80;99.90;;;;;;5077388;28;20056;-83
2021/04/13 06:54:10;;;;;;;13.65;5.80;;;4.90;99.90;;;;;;5069825;28;20028;-82
2021/04/13 06:57:16;;;;;;;11.75;6.15;;;5.30;99.90;;;;;;5089342;28;20043;-82
2021/04/13 07:00:03;;;;;;;12.63;6.78;;;5.30;99.90;;;;;;5060438;28;20111;-82
2021/04/13 07:02:43;;;;;;;13.38;5.63;;;5.10;99.90;;;;;;5080450;28;20028;-82
2021/04/13 07:05:19;;;;;;;9.80;5.68;;;5.70;99.90;;;;;;5086743;28;20407;-82
2021/04/13 07:08:08;;;;;;;10.27;5.78;;;6.20;99.90;;;;;;5084358;28;20032;-83
2021/04/13 07:10:40;;;;;;;11.27;5.53;;;6.50;99.90;;;;;;5089187;28;20073;-83
2021/04/13 07:13:18;;;;;;;11.45;6.25;;;6.40;99.90;;;;;;5090968;28;20044;-83
2021/04/13 07:16:05;;;;;;;13.55;5.75;;;6.70;99.90;;;;;;5063871;28;20062;-82
2021/04/13 07:18:52;;;;;;;9.85;5.28;;;6.60;99.90;;;;;;5079604;28;20051;-81
2021/04/13 07:21:23;;;;;;;11.93;5.22;;;7.20;99.90;;;;;;5085571;28;20213;-80
2021/04/13 07:24:00;;;;;;;13.82;5.95;;;7.10;99.90;;;;;;5069867;28;20060;-81
2021/04/13 07:26:32;;;;;;;10.07;5.20;;;7.00;99.90;;;;;;5067092;28;20077;-83
2021/04/13 07:29:16;;;;;;;13.30;5.13;;;7.50;99.90;;;;;;5090671;28;20036;-84
2021/04/13 07:31:52;;;;;;;11.60;5.57;;;7.70;99.90;;;;;;5086592;28;20049;-84
2021/04/13 07:34:19;;;;;;;9.77;4.70;;;7.90;99.90;;;;;;5080718;28;20067;-83
2021/04/13 07:36:49;;;;;;;6.65;3.10;;;7.60;99.90;;;;;;5078147;28;20033;-83
2021/04/13 07:39:16;;;;;;;5.88;2.90;;;8.10;99.90;;;;;;5059998;28;20030;-83
2021/04/13 07:41:53;;;;;;;9.73;3.83;;;8.40;99.90;;;;;;5090556;28;20556;-81
2021/04/13 07:44:36;;;;;;;9.13;3.85;;;8.40;99.90;;;;;;5089528;28;20435;-82
2021/04/13 07:47:18;;;;;;;7.47;3.90;;;8.00;99.90;;;;;;5072203;28;20039;-80
2021/04/13 07:49:51;;;;;;;12.15;4.15;;;8.30;99.90;;;;;;5090876;28;20105;-80
2021/04/13 07:52:29;;;;;;;11.75;4.55;;;7.60;99.90;;;;;;5088243;28;20028;-81
2021/04/13 07:55:08;;;;;;;9.82;3.85;;;7.50;99.90;;;;;;5082341;28;20031;-81
2021/04/13 07:57:36;;;;;;;8.18;3.70;;;7.80;99.60;;;;;;5087412;28;20111;-81
2021/04/13 08:00:10;;;;;;;7.70;3.83;;;8.10;99.90;;;;;;5056537;28;20526;-83
2021/04/13 08:02:36;;;;;;;7.07;3.50;;;7.90;98.80;;;;;;5084887;28;20036;-83
2021/04/13 08:05:03;;;;;;;9.57;3.58;;;7.80;98.00;;;;;;5090234;28;20107;-83
2021/04/13 08:07:38;;;;;;;11.80;3.35;;;7.90;98.00;;;;;;5060103;28;20731;-83
2021/04/13 08:10:18;;;;;;;9.88;4.00;;;8.10;99.10;;;;;;5083239;28;20047;-82
2021/04/13 08:12:59;;;;;;;7.18;3.85;;;8.40;99.10;;;;;;5061627;28;20040;-83
2021/04/13 08:15:51;;;;;;;13.60;3.72;;;8.90;99.60;;;;;;5082868;28;20505;-79
2021/04/13 08:18:24;;;;;;;7.43;3.47;;;9.20;98.00;;;;;;5074978;28;20485;-81
2021/04/13 08:20:51;;;;;;;8.85;4.22;;;9.40;97.10;;;;;;5088586;28;20067;-81
2021/04/13 08:23:23;;;;;;;9.75;4.30;;;9.60;96.50;;;;;;5087892;28;20066;-81
2021/04/13 08:25:58;;;;;;;10.30;3.30;;;9.90;95.20;;;;;;5080406;28;20031;-80
2021/04/13 08:28:36;;;;;;;7.10;4.15;;;9.20;93.50;;;;;;5083436;28;20074;-80
2021/04/13 08:34:34;;;;;;;6.55;2.85;;;8.30;95.40;;;;;;5078673;28;20043;-80
2021/04/13 08:37:52;;;;;;;8.80;3.67;;;8.70;96.00;;;;;;5083931;28;20119;-81
2021/04/13 08:40:25;;;;;;;11.68;3.88;;;8.80;94.60;;;;;;5006250;28;20081;-80
2021/04/13 08:43:39;;;;;;;7.82;3.90;;;8.40;94.10;;;;;;5077761;28;20083;-80
2021/04/13 08:46:11;;;;;;;9.18;4.00;;;8.30;93.50;;;;;;5002816;28;20126;-81
2021/04/13 08:49:01;;;;;;;7.43;3.77;;;8.10;93.30;;;;;;5063374;28;20056;-80
2021/04/13 08:51:38;;;;;;;9.90;3.38;;;7.70;94.70;;;;;;5078703;28;20671;-80
2021/04/13 08:54:32;;;;;;;8.13;4.03;;;7.50;95.50;;;;;;5081620;28;20560;-80
2021/04/13 08:57:11;;;;;;;11.43;3.90;;;7.90;95.50;;;;;;5081535;28;20029;-80
2021/04/13 08:59:39;;;;;;;6.22;3.03;;;8.50;97.30;;;;;;5086088;28;20800;-81
2021/04/13 09:02:32;;;;;;;8.60;3.63;;;8.60;96.30;;;;;;5084585;28;20036;-81
2021/04/13 09:05:11;;;;;;;8.43;4.10;;;9.10;95.10;;;;;;5082185;28;20020;-80
2021/04/13 09:07:45;;;;;;;8.82;3.25;;;9.40;93.60;;;;;;5081627;28;20042;-80
2021/04/13 09:10:33;;;;;;;7.43;3.05;;;10.00;93.50;;;;;;5079534;28;20034;-80
2021/04/13 09:13:22;;;;;;;6.85;3.22;;;9.80;92.20;;;;;;5078340;28;20985;-81
2021/04/13 09:16:06;;;;;;;8.00;2.88;;;10.40;91.20;;;;;;5071648;28;20045;-81
2021/04/13 09:18:57;;;;;;;10.07;2.92;;;10.60;90.90;;;;;;5086111;28;20036;-80
2021/04/13 09:21:44;;;;;;;7.97;2.45;;;10.90;90.80;;;;;;5074494;28;20063;-79
2021/04/13 09:24:39;;;;;;;18.15;2.92;;;10.90;88.80;;;;;;5087826;28;20024;-79
2021/04/13 09:27:33;;;;;;;4.95;1.88;;;10.30;85.70;;;;;;5073833;28;20035;-79
2021/04/13 09:30:33;;;;;;;6.40;2.17;;;9.70;82.20;;;;;;5073468;28;20063;-79
2021/04/13 09:33:19;;;;;;;3.38;1.50;;;9.50;84.10;;;;;;5078837;28;20058;-79
2021/04/13 09:35:51;;;;;;;6.15;1.67;;;10.20;79.30;;;;;;5086541;28;20036;-79
2021/04/13 09:38:42;;;;;;;3.90;1.40;;;10.00;81.90;;;;;;5089140;28;20036;-80
2021/04/13 09:41:14;;;;;;;4.65;1.45;;;10.20;79.40;;;;;;5080997;28;20074;-80
2021/04/13 09:44:04;;;;;;;2.75;1.23;;;9.50;76.30;;;;;;5083677;28;20037;-80
2021/04/13 09:46:51;;;;;;;4.65;0.85;;;9.70;70.90;;;;;;5089596;28;20024;-80
2021/04/13 09:49:34;;;;;;;7.90;1.10;;;10.30;75.70;;;;;;5064954;28;20039;-80
2021/04/13 09:52:20;;;;;;;3.03;1.00;;;10.70;76.90;;;;;;5077829;28;20759;-80
2021/04/13 09:55:11;;;;;;;1.67;0.60;;;10.40;71.70;;;;;;5079719;28;20036;-80
2021/04/13 09:58:16;;;;;;;5.50;0.85;;;11.00;72.60;;;;;;5089475;28;20122;-79
2021/04/13 10:00:50;;;;;;;2.67;1.55;;;10.70;67.60;;;;;;5062978;28;20043;-81
2021/04/13 10:03:37;;;;;;;6.10;0.90;;;10.80;69.20;;;;;;5078282;28;20063;-81
2021/04/13 10:06:06;;;;;;;3.45;0.75;;;10.90;69.00;;;;;;5081315;28;20043;-82
2021/04/13 10:08:38;;;;;;;6.38;0.80;;;11.10;67.30;;;;;;5063220;28;20028;-81
2021/04/13 10:11:27;;;;;;;3.70;1.17;;;11.10;66.60;;;;;;5071758;28;20052;-81
2021/04/13 10:14:14;;;;;;;8.13;3.53;;;10.80;66.80;;;;;;5086845;28;20063;-82
2021/04/13 10:17:31;;;;;;;2.70;1.10;;;10.90;67.20;;;;;;5089193;28;20127;-82
2021/04/13 10:20:30;;;;;;;2.92;0.88;;;10.70;64.30;;;;;;5084883;28;20817;-82
2021/04/13 10:23:07;;;;;;;3.90;1.50;;;10.30;62.20;;;;;;5084878;28;20040;-81
2021/04/13 10:25:52;;;;;;;1.38;0.63;;;11.10;74.20;;;;;;5079332;28;20025;-81
2021/04/13 10:28:35;;;;;;;8.38;0.80;;;10.80;65.60;;;;;;5081738;28;20040;-80
2021/04/13 10:31:15;;;;;;;2.72;0.85;;;11.30;67.50;;;;;;5082925;28;20079;-81
2021/04/13 10:34:21;;;;;;;2.83;0.80;;;11.50;65.70;;;;;;5082257;28;20047;-81
2021/04/13 10:37:13;;;;;;;2.90;0.80;;;11.50;64.90;;;;;;5080999;28;20033;-81
2021/04/13 10:39:49;;;;;;;1.83;0.85;;;12.10;67.00;;;;;;5079368;28;20111;-81
2021/04/13 10:42:42;;;;;;;3.67;1.00;;;12.10;66.40;;;;;;5079457;28;20595;-80
2021/04/13 10:45:37;;;;;;;2.78;0.93;;;12.40;64.60;;;;;;5079215;28;20488;-81
2021/04/13 10:48:05;;;;;;;4.22;1.00;;;12.60;66.30;;;;;;5079503;28;20032;-81
2021/04/13 10:50:50;;;;;;;3.38;1.17;;;12.60;65.80;;;;;;5081719;28;20043;-81
2021/04/13 10:53:22;;;;;;;2.95;1.20;;;12.90;66.30;;;;;;5077892;28;20039;-81
2021/04/13 10:56:10;;;;;;;2.53;1.00;;;12.60;67.10;;;;;;5083723;28;20059;-81
2021/04/13 10:59:12;;;;;;;2.95;1.25;;;12.30;66.40;;;;;;5084459;28;20049;-80
2021/04/13 11:02:02;;;;;;;3.65;1.10;;;11.70;66.70;;;;;;5075973;28;20039;-80
2021/04/13 11:04:45;;;;;;;2.10;0.98;;;11.90;64.60;;;;;;5080912;28;20506;-81
2021/04/13 11:07:36;;;;;;;3.15;1.00;;;12.20;67.00;;;;;;5078950;28;20035;-81
2021/04/13 11:10:20;;;;;;;3.03;1.00;;;12.40;66.40;;;;;;5087447;28;20028;-80
2021/04/13 11:13:14;;;;;;;4.40;1.30;;;12.10;63.20;;;;;;5085105;28;20068;-80
2021/04/13 11:16:17;;;;;;;4.60;0.70;;;11.50;61.60;;;;;;5050915;28;20040;-81
2021/04/13 11:19:02;;;;;;;2.92;1.10;;;11.50;61.80;;;;;;5079563;28;20035;-81
2021/04/13 11:22:06;;;;;;;8.60;1.02;;;12.00;65.40;;;;;;5072867;28;20020;-81
2021/04/13 11:25:09;;;;;;;6.32;1.20;;;12.10;60.70;;;;;;5082759;28;20033;-81
2021/04/13 11:28:07;;;;;;;3.97;1.15;;;12.10;68.00;;;;;;5089703;28;20067;-81
2021/04/13 11:31:03;;;;;;;3.03;1.10;;;12.40;69.30;;;;;;5081569;28;20085;-81
2021/04/13 11:33:59;;;;;;;3.40;0.90;;;11.80;61.30;;;;;;5079605;28;20457;-80
2021/04/13 11:36:36;;;;;;;2.80;0.90;;;11.90;63.80;;;;;;5056208;28;20497;-80
2021/04/13 11:39:16;;;;;;;2.63;1.00;;;11.70;61.90;;;;;;5084763;28;20028;-81
2021/04/13 11:42:15;;;;;;;4.40;1.45;;;11.70;64.70;;;;;;5089485;28;20141;-81
2021/04/13 11:44:45;;;;;;;3.35;1.25;;;11.90;67.20;;;;;;5066087;28;20393;-80
2021/04/13 11:47:26;;;;;;;8.73;1.52;;;12.10;66.30;;;;;;5086392;28;20046;-81
2021/04/13 11:50:08;;;;;;;2.72;1.05;;;12.10;66.50;;;;;;5083106;28;20032;-80
2021/04/13 11:52:44;;;;;;;3.70;0.83;;;12.00;62.50;;;;;;5077398;28;20090;-81
2021/04/13 11:55:27;;;;;;;2.85;1.20;;;11.30;61.30;;;;;;5082310;28;20704;-81
2021/04/13 11:58:16;;;;;;;4.40;1.33;;;11.50;65.40;;;;;;5086905;28;20507;-81
2021/04/13 12:00:45;;;;;;;3.72;1.30;;;11.90;63.30;;;;;;5076900;28;20453;-81
2021/04/13 12:03:17;;;;;;;2.67;0.90;;;12.20;65.90;;;;;;5084660;28;20111;-81
2021/04/13 12:06:35;;;;;;;3.33;1.13;;;12.50;65.60;;;;;;5082071;28;20082;-81
2021/04/13 12:09:00;;;;;;;3.63;1.38;;;12.10;61.60;;;;;;5043661;28;20048;-81
2021/04/13 12:11:44;;;;;;;2.95;0.70;;;11.40;59.90;;;;;;5076127;28;20044;-81
2021/04/13 12:14:29;;;;;;;3.08;0.90;;;11.10;60.50;;;;;;5078119;28;21043;-80
2021/04/13 12:16:55;;;;;;;1.75;0.80;;;10.80;59.10;;;;;;5080577;28;20086;-81
2021/04/13 12:19:22;;;;;;;2.83;1.00;;;11.30;62.10;;;;;;5079365;28;20492;-81
2021/04/13 12:21:53;;;;;;;2.33;0.77;;;11.80;64.30;;;;;;5074662;28;20020;-80
2021/04/13 12:24:39;;;;;;;1.85;0.82;;;11.80;58.20;;;;;;5084651;28;20031;-81
2021/04/13 12:27:25;;;;;;;2.45;0.80;;;11.50;59.70;;;;;;5065996;28;20067;-81
2021/04/13 12:30:11;;;;;;;4.35;0.90;;;11.90;64.40;;;;;;5067443;28;20035;-80
2021/04/13 12:32:42;;;;;;;2.70;0.95;;;12.20;62.20;;;;;;5026350;28;20048;-81
2021/04/13 12:35:07;;;;;;;2.63;0.77;;;12.30;58.20;;;;;;5084818;28;20059;-81
2021/04/13 12:37:40;;;;;;;2.97;1.02;;;12.30;62.30;;;;;;5072519;28;20059;-81
2021/04/13 12:40:20;;;;;;;3.17;0.70;;;12.00;62.40;;;;;;5084660;28;20028;-81
2021/04/13 12:42:54;;;;;;;2.40;0.85;;;12.00;60.30;;;;;;5092176;28;20124;-80
2021/04/13 12:45:22;;;;;;;6.93;2.65;;;11.50;60.10;;;;;;5087901;28;20028;-81
2021/04/13 12:47:54;;;;;;;4.30;0.82;;;11.20;61.60;;;;;;5084922;28;20491;-81
2021/04/13 12:50:42;;;;;;;3.78;0.80;;;11.40;60.90;;;;;;5078707;28;20107;-81
2021/04/13 12:53:17;;;;;;;2.20;0.70;;;11.20;59.40;;;;;;5083952;28;20032;-80
2021/04/13 12:55:44;;;;;;;3.95;0.80;;;10.90;62.00;;;;;;5081479;28;20040;-80
2021/04/13 12:58:13;;;;;;;2.28;0.60;;;11.10;59.10;;;;;;5079001;28;20032;-81
2021/04/13 13:00:44;;;;;;;2.70;0.68;;;11.30;60.70;;;;;;5083392;28;20039;-81
2021/04/13 13:03:13;;;;;;;3.05;1.00;;;11.70;63.40;;;;;;5077724;28;20358;-81
2021/04/13 13:05:39;;;;;;;5.88;0.95;;;11.40;57.30;;;;;;5076293;28;20050;-81
2021/04/13 13:08:07;;;;;;;5.82;0.90;;;11.50;60.50;;;;;;5085342;28;20384;-80
2021/04/13 13:10:37;;;;;;;2.78;0.60;;;11.40;58.90;;;;;;5088127;28;20035;-81
2021/04/13 13:13:06;;;;;;;7.20;0.88;;;11.40;58.90;;;;;;5086271;28;20031;-80
2021/04/13 13:15:35;;;;;;;2.90;0.77;;;11.30;60.90;;;;;;5088973;28;20032;-79
2021/04/13 13:18:20;;;;;;;1.95;0.70;;;10.70;59.70;;;;;;5079525;28;20043;-79
2021/04/13 13:20:47;;;;;;;3.70;1.00;;;10.70;61.70;;;;;;5081669;28;20039;-79
2021/04/13 13:23:26;;;;;;;4.97;1.00;;;10.80;63.40;;;;;;5088523;28;20065;-80
2021/04/13 13:25:52;;;;;;;7.70;0.80;;;10.80;60.70;;;;;;5087194;28;20078;-80
2021/04/13 13:28:23;;;;;;;5.00;0.63;;;10.70;60.20;;;;;;5089186;28;20419;-79
2021/04/13 13:30:50;;;;;;;4.72;0.75;;;10.50;62.60;;;;;;5090252;28;20453;-79
2021/04/13 13:33:18;;;;;;;3.28;0.80;;;10.70;63.30;;;;;;5088129;28;20638;-79
2021/04/13 13:35:44;;;;;;;1.90;0.70;;;10.40;60.60;;;;;;5085013;28;20040;-79
2021/04/13 13:38:14;;;;;;;4.40;0.80;;;10.60;58.80;;;;;;5084329;28;20056;-80
2021/04/13 13:40:42;;;;;;;2.83;0.60;;;10.50;60.60;;;;;;5086113;28;20492;-79
2021/04/13 13:43:11;;;;;;;6.55;0.82;;;10.50;61.80;;;;;;5084731;28;20024;-80
2021/04/13 13:45:45;;;;;;;3.28;0.85;;;10.60;62.00;;;;;;5092645;28;20028;-79